createdAt,value
2023-04-20T00:00:40.375Z,99339.59
2023-04-20T00:03:08.693Z,99335.44
2023-04-20T00:05:37.704Z,99338.75
2023-04-20T00:08:06.192Z,99337.53
2023-04-20T00:10:34.159Z,99323.81
2023-04-20T00:13:02.161Z,99328.59
2023-04-20T00:15:30.350Z,99331.69
2023-04-20T00:17:59.678Z,99326.28
2023-04-20T00:20:27.892Z,99327.97
2023-04-20T00:22:56.137Z,99328.38
2023-04-20T00:25:24.058Z,99325.69
2023-04-20T00:27:52.021Z,99322.56
2023-04-20T00:30:19.993Z,99320.91
2023-04-20T00:32:47.997Z,99325.06
2023-04-20T00:35:17.350Z,99317.56
2023-04-20T00:37:45.283Z,99318.41
2023-04-20T00:40:13.636Z,99316.16
2023-04-20T00:42:42.362Z,99318.84
2023-04-20T00:45:11.159Z,99311.41
2023-04-20T00:47:39.467Z,99321.78
2023-04-20T00:50:08.856Z,99321.31
2023-04-20T00:52:38.199Z,99318.41
2023-04-20T00:55:07.222Z,99317.19
2023-04-20T00:57:35.555Z,99310.56
2023-04-20T01:00:06.721Z,99313.44
2023-04-20T01:02:34.737Z,99316.78
2023-04-20T01:05:04.011Z,99318.03
2023-04-20T01:07:32.386Z,99316.97
2023-04-20T01:10:01.711Z,99315.75
2023-04-20T01:12:29.661Z,99318.84
2023-04-20T01:14:57.607Z,99313.88
2023-04-20T01:17:25.714Z,99315.13
2023-04-20T01:19:53.732Z,99316.38
2023-04-20T01:22:23.039Z,99311.59
2023-04-20T01:24:51.022Z,99314.09
2023-04-20T01:27:18.922Z,99318.03
2023-04-20T01:29:47.173Z,99320.13
2023-04-20T01:32:15.091Z,99325.09
2023-04-20T01:34:43.068Z,99328.38
2023-04-20T01:37:10.979Z,99320.50
2023-04-20T01:39:40.387Z,99329.00
2023-04-20T01:42:08.459Z,99328.38
2023-04-20T01:44:36.419Z,99329.00
2023-04-20T01:47:04.607Z,99323.00
2023-04-20T01:49:32.711Z,99324.63
2023-04-20T01:52:01.028Z,99319.22
2023-04-20T01:54:29.043Z,99317.59
2023-04-20T01:56:58.778Z,99327.75
2023-04-20T01:59:26.735Z,99327.31
2023-04-20T02:01:54.726Z,99325.91
2023-04-20T02:04:22.763Z,99317.59
2023-04-20T02:06:50.758Z,99316.53
2023-04-20T02:09:18.961Z,99314.03
2023-04-20T02:11:47.086Z,99313.44
2023-04-20T02:14:16.399Z,99315.50
2023-04-20T02:16:44.374Z,99308.22
2023-04-20T02:19:12.330Z,99318.41
2023-04-20T02:21:40.436Z,99313.00
2023-04-20T02:24:08.745Z,99318.59
2023-04-20T02:26:36.665Z,99320.06
2023-04-20T02:29:04.556Z,99307.59
2023-04-20T02:31:34.443Z,99310.91
2023-04-20T02:34:02.695Z,99310.69
2023-04-20T02:36:30.979Z,99310.28
2023-04-20T02:38:58.907Z,99311.72
2023-04-20T02:41:26.833Z,99306.75
2023-04-20T02:43:54.768Z,99304.69
2023-04-20T02:46:22.703Z,99303.41
2023-04-20T02:48:52.058Z,99305.47
2023-04-20T02:51:19.977Z,99305.03
2023-04-20T02:53:47.928Z,99299.63
2023-04-20T02:56:15.843Z,99309.63
2023-04-20T02:58:43.815Z,99314.22
2023-04-20T03:01:11.813Z,99304.66
2023-04-20T03:03:39.849Z,99313.31
2023-04-20T03:06:09.447Z,99313.31
2023-04-20T03:08:37.409Z,99307.09
2023-04-20T03:11:05.388Z,99313.72
2023-04-20T03:13:33.342Z,99318.31
2023-04-20T03:16:02.796Z,99318.31
2023-04-20T03:18:30.767Z,99326.16
2023-04-20T03:20:58.720Z,99328.19
2023-04-20T03:23:28.097Z,99330.22
2023-04-20T03:25:56.016Z,99318.63
2023-04-20T03:28:23.950Z,99337.69
2023-04-20T03:30:51.929Z,99336.06
2023-04-20T03:33:19.916Z,99329.41
2023-04-20T03:35:47.889Z,99332.72
2023-04-20T03:38:15.808Z,99335.19
2023-04-20T03:40:45.497Z,99335.00
2023-04-20T03:43:13.433Z,99332.09
2023-04-20T03:45:41.416Z,99339.78
2023-04-20T03:48:09.406Z,99325.84
2023-04-20T03:50:37.401Z,99322.69
2023-04-20T03:53:05.370Z,99322.69
2023-04-20T03:55:33.308Z,99317.31
2023-04-20T03:58:02.577Z,99329.75
2023-04-20T04:00:30.536Z,99323.16
2023-04-20T04:02:58.561Z,99326.03
2023-04-20T04:05:26.703Z,99334.31
2023-04-20T04:07:54.804Z,99334.69
2023-04-20T04:10:22.725Z,99333.84
2023-04-20T04:12:50.631Z,99336.53
2023-04-20T04:15:20.332Z,99332.59
2023-04-20T04:17:48.840Z,99333.84
2023-04-20T04:20:16.847Z,99333.47
2023-04-20T04:22:44.831Z,99336.00
2023-04-20T04:25:12.996Z,99335.13
2023-04-20T04:27:41.450Z,99331.06
2023-04-20T04:30:11.218Z,99333.56
2023-04-20T04:32:40.773Z,99332.56
2023-04-20T04:35:10.853Z,99339.03
2023-04-20T04:37:38.847Z,99341.13
2023-04-20T04:40:09.329Z,99343.22
2023-04-20T04:42:37.254Z,99340.00
2023-04-20T04:45:05.803Z,99341.66
2023-04-20T04:47:35.873Z,99341.66
2023-04-20T04:50:05.923Z,99345.38
2023-04-20T04:52:34.068Z,99343.09
2023-04-20T04:55:02.636Z,99344.06
2023-04-20T04:57:30.658Z,99350.69
2023-04-20T04:59:58.664Z,99351.91
2023-04-20T05:02:26.893Z,99350.88
2023-04-20T05:04:55.148Z,99356.22
2023-04-20T05:07:24.852Z,99359.25
2023-04-20T05:09:52.819Z,99360.16
2023-04-20T05:12:20.760Z,99366.03
2023-04-20T05:14:48.705Z,99363.09
2023-04-20T05:17:16.687Z,99368.50
2023-04-20T05:19:44.630Z,99372.41
2023-04-20T05:22:12.560Z,99367.53
2023-04-20T05:24:42.367Z,99369.19
2023-04-20T05:27:11.329Z,99343.53
2023-04-20T05:29:39.290Z,99370.13
2023-04-20T05:32:07.368Z,99377.97
2023-04-20T05:34:35.381Z,99366.13
2023-04-20T05:37:04.772Z,99365.84
2023-04-20T05:39:32.707Z,99367.72
2023-04-20T05:42:02.280Z,99354.09
2023-04-20T05:44:30.201Z,99368.06
2023-04-20T05:46:58.159Z,99366.31
2023-04-20T05:49:26.334Z,99370.84
2023-04-20T05:51:54.343Z,99382.81
2023-04-20T05:54:22.552Z,99381.50
2023-04-20T05:56:50.532Z,99380.09
2023-04-20T05:59:19.998Z,99378.09
2023-04-20T06:01:47.905Z,99386.81
2023-04-20T06:04:16.201Z,99387.91
2023-04-20T06:06:44.304Z,99383.81
2023-04-20T06:09:12.260Z,99391.97
2023-04-20T06:11:40.207Z,99388.34
2023-04-20T06:14:08.104Z,99392.72
2023-04-20T06:16:37.431Z,99381.34
2023-04-20T06:19:05.391Z,99394.81
2023-04-20T06:21:34.548Z,99387.44
2023-04-20T06:24:02.533Z,99387.75
2023-04-20T06:26:30.454Z,99385.25
2023-04-20T06:28:58.378Z,99381.16
2023-04-20T06:31:26.426Z,99385.41
2023-04-20T06:33:55.824Z,99381.53
2023-04-20T06:36:23.790Z,99389.78
2023-04-20T06:38:51.749Z,99391.88
2023-04-20T06:41:19.683Z,99394.09
2023-04-20T06:43:47.676Z,99395.06
2023-04-20T06:46:15.623Z,99391.03
2023-04-20T06:48:43.626Z,99400.28
2023-04-20T06:51:13.704Z,99399.53
2023-04-20T06:53:41.698Z,99401.97
2023-04-20T06:56:09.758Z,99397.97
2023-04-20T06:58:38.885Z,99402.19
2023-04-20T07:01:06.895Z,99397.72
2023-04-20T07:03:35.229Z,99396.13
2023-04-20T07:06:03.272Z,99404.50
2023-04-20T07:08:32.580Z,99405.50
2023-04-20T07:11:00.576Z,99405.09
2023-04-20T07:13:31.466Z,99406.16
2023-04-20T07:16:01.634Z,99412.50
2023-04-20T07:18:29.674Z,99401.28
2023-04-20T07:20:57.656Z,99402.44
2023-04-20T07:23:27.960Z,99412.59
2023-04-20T07:25:57.315Z,99407.34
2023-04-20T07:28:25.261Z,99415.16
2023-04-20T07:30:53.197Z,99403.28
2023-04-20T07:33:21.290Z,99406.44
2023-04-20T07:35:49.210Z,99412.47
2023-04-20T07:38:17.146Z,99409.81
2023-04-20T07:40:45.060Z,99404.41
2023-04-20T07:43:14.372Z,99408.84
2023-04-20T07:45:42.684Z,99400.13
2023-04-20T07:48:12.525Z,99400.44
2023-04-20T07:50:40.575Z,99402.38
2023-04-20T07:53:08.510Z,99399.78
2023-04-20T07:55:36.770Z,99395.22
2023-04-20T07:58:04.780Z,99396.63
2023-04-20T08:00:34.188Z,99396.88
2023-04-20T08:03:02.241Z,99383.53
2023-04-20T08:05:30.397Z,99388.06
2023-04-20T08:07:58.917Z,99390.44
2023-04-20T08:10:26.926Z,99389.69
2023-04-20T08:12:54.868Z,99378.66
2023-04-20T08:15:22.924Z,99376.69
2023-04-20T08:17:53.068Z,99388.81
2023-04-20T08:20:21.123Z,99382.19
2023-04-20T08:22:49.372Z,99383.16
2023-04-20T08:25:17.505Z,99382.97
2023-04-20T08:27:45.500Z,99379.22
2023-04-20T08:30:13.902Z,99376.09
2023-04-20T08:32:42.392Z,99374.13
2023-04-20T08:35:11.791Z,99380.72
2023-04-20T08:37:39.841Z,99371.44
2023-04-20T08:40:09.274Z,99376.09
2023-04-20T08:42:37.278Z,99368.97
2023-04-20T08:45:05.588Z,99372.22
2023-04-20T08:47:34.102Z,99365.63
2023-04-20T08:50:02.075Z,99375.34
2023-04-20T08:52:31.454Z,99381.63
2023-04-20T08:54:59.411Z,99370.28
2023-04-20T08:57:27.385Z,99365.25
2023-04-20T08:59:55.551Z,99362.38
2023-04-20T09:02:23.751Z,99351.41
2023-04-20T09:05:01.472Z,99358.91
2023-04-20T09:07:29.489Z,99362.34
2023-04-20T09:09:59.402Z,99356.78
2023-04-20T09:12:27.406Z,99363.63
2023-04-20T09:14:55.980Z,99357.47
2023-04-20T09:17:33.859Z,99357.09
2023-04-20T09:20:01.945Z,99365.22
2023-04-20T09:22:33.014Z,99362.25
2023-04-20T09:25:02.386Z,99364.84
2023-04-20T09:27:30.322Z,99365.38
2023-04-20T09:29:59.076Z,99366.44
2023-04-20T09:32:28.132Z,99364.94
2023-04-20T09:34:56.166Z,99361.91
2023-04-20T09:37:24.108Z,99370.47
2023-04-20T09:39:52.120Z,99367.16
2023-04-20T09:42:21.459Z,99355.47
2023-04-20T09:44:49.435Z,99354.56
2023-04-20T09:47:17.777Z,99361.59
2023-04-20T09:49:46.630Z,99365.81
2023-04-20T09:52:17.411Z,99371.81
2023-04-20T09:54:45.462Z,99370.53
2023-04-20T09:57:13.865Z,99367.41
2023-04-20T09:59:44.048Z,99367.19
2023-04-20T10:02:13.333Z,99362.16
2023-04-20T10:04:53.828Z,99347.16
2023-04-20T10:07:26.066Z,99350.09
2023-04-20T10:10:05.003Z,99353.59
2023-04-20T10:12:32.995Z,99348.56
2023-04-20T10:15:02.268Z,99346.41
2023-04-20T10:17:33.612Z,99342.03
2023-04-20T10:20:01.687Z,99350.50
2023-04-20T10:22:33.048Z,99342.97
2023-04-20T10:25:01.301Z,99336.75
2023-04-20T10:27:32.271Z,99337.19
2023-04-20T10:30:11.821Z,99341.13
2023-04-20T10:32:39.815Z,99342.59
2023-04-20T10:35:08.773Z,99344.97
2023-04-20T10:37:36.749Z,99332.50
2023-04-20T10:40:07.666Z,99334.31
2023-04-20T10:42:43.389Z,99333.53
2023-04-20T10:45:12.855Z,99334.88
2023-04-20T10:47:41.797Z,99342.00
2023-04-20T10:50:10.846Z,99342.00
2023-04-20T10:52:39.924Z,99334.59
2023-04-20T10:55:08.494Z,99337.06
2023-04-20T10:57:37.441Z,99333.50
2023-04-20T11:00:17.660Z,99331.03
2023-04-20T11:02:51.743Z,99333.16
2023-04-20T11:05:20.404Z,99332.53
2023-04-20T11:07:51.904Z,99331.09
2023-04-20T11:10:20.257Z,99326.72
2023-04-20T11:12:48.222Z,99333.88
2023-04-20T11:15:17.754Z,99326.00
2023-04-20T11:17:47.086Z,99320.03
2023-04-20T11:20:17.778Z,99327.09
2023-04-20T11:22:45.856Z,99316.56
2023-04-20T11:25:14.051Z,99316.88
2023-04-20T11:27:43.210Z,99308.53
2023-04-20T11:30:11.460Z,99316.34
2023-04-20T11:32:41.141Z,99303.66
2023-04-20T11:35:10.955Z,99304.06
2023-04-20T11:37:47.432Z,99298.94
2023-04-20T11:40:15.378Z,99305.22
2023-04-20T11:42:43.323Z,99299.75
2023-04-20T11:45:12.211Z,99302.22
2023-04-20T11:47:42.084Z,99299.47
2023-04-20T11:50:10.432Z,99302.50
2023-04-20T11:52:38.706Z,99294.09
2023-04-20T11:55:07.779Z,99293.09
2023-04-20T11:57:36.266Z,99301.91
2023-04-20T12:00:04.953Z,99292.63
2023-04-20T12:02:32.972Z,99284.84
2023-04-20T12:05:03.220Z,99288.41
2023-04-20T12:07:31.242Z,99293.34
2023-04-20T12:09:59.191Z,99289.75
2023-04-20T12:12:27.555Z,99282.22
2023-04-20T12:14:55.495Z,99277.94
2023-04-20T12:17:23.506Z,99276.59
2023-04-20T12:19:52.578Z,99276.53
2023-04-20T12:22:21.923Z,99283.50
2023-04-20T12:24:49.848Z,99278.53
2023-04-20T12:27:17.829Z,99276.72
2023-04-20T12:29:45.793Z,99275.72
2023-04-20T12:32:13.699Z,99266.69
2023-04-20T12:34:41.653Z,99266.75
2023-04-20T12:37:09.608Z,99266.56
2023-04-20T12:39:38.889Z,99261.44
2023-04-20T12:42:06.884Z,99259.34
2023-04-20T12:44:34.875Z,99255.34
2023-04-20T12:47:02.978Z,99260.84
2023-04-20T12:49:32.552Z,99255.22
2023-04-20T12:52:01.640Z,99249.06
2023-04-20T12:54:29.549Z,99250.63
2023-04-20T12:56:58.851Z,99246.69
2023-04-20T12:59:26.816Z,99240.84
2023-04-20T13:01:54.798Z,99244.66
2023-04-20T13:04:23.378Z,99236.97
2023-04-20T13:06:51.795Z,99247.88
2023-04-20T13:09:19.784Z,99238.25
2023-04-20T13:11:47.801Z,99240.59
2023-04-20T13:14:17.259Z,99233.22
2023-04-20T13:16:45.585Z,99227.00
2023-04-20T13:19:13.583Z,99234.66
2023-04-20T13:21:41.606Z,99230.09
2023-04-20T13:24:09.876Z,99230.63
2023-04-20T13:26:37.829Z,99230.19
2023-04-20T13:29:05.821Z,99228.88
2023-04-20T13:31:35.189Z,99226.91
2023-04-20T13:34:03.173Z,99224.19
2023-04-20T13:36:32.758Z,99228.84
2023-04-20T13:39:00.882Z,99224.59
2023-04-20T13:41:28.784Z,99234.63
2023-04-20T13:43:58.044Z,99239.94
2023-04-20T13:46:26.067Z,99245.22
2023-04-20T13:48:55.482Z,99255.47
2023-04-20T13:51:23.421Z,99267.44
2023-04-20T13:53:51.368Z,99268.03
2023-04-20T13:56:19.441Z,99274.28
2023-04-20T13:58:47.442Z,99266.84
2023-04-20T14:01:16.575Z,99266.19
2023-04-20T14:03:44.947Z,99265.63
2023-04-20T14:06:14.404Z,99257.22
2023-04-20T14:08:42.351Z,99259.41
2023-04-20T14:11:10.767Z,99261.91
2023-04-20T14:13:38.969Z,99260.09
2023-04-20T14:16:09.761Z,99241.19
2023-04-20T14:18:37.717Z,99252.78
2023-04-20T14:21:05.780Z,99247.16
2023-04-20T14:23:35.184Z,99251.22
2023-04-20T14:26:04.048Z,99251.50
2023-04-20T14:28:33.373Z,99260.06
2023-04-20T14:31:02.461Z,99254.09
2023-04-20T14:33:30.490Z,99242.13
2023-04-20T14:35:58.504Z,99244.75
2023-04-20T14:38:26.446Z,99232.09
2023-04-20T14:40:55.788Z,99233.56
2023-04-20T14:43:24.003Z,99228.81
2023-04-20T14:45:52.023Z,99231.75
2023-04-20T14:48:20.021Z,99227.03
2023-04-20T14:50:47.920Z,99234.19
2023-04-20T14:53:15.880Z,99233.72
2023-04-20T14:55:43.868Z,99231.34
2023-04-20T14:58:13.248Z,99224.94
2023-04-20T15:00:41.206Z,99218.78
2023-04-20T15:03:09.259Z,99223.25
2023-04-20T15:05:37.676Z,99220.81
2023-04-20T15:08:06.114Z,99204.53
2023-04-20T15:10:34.817Z,99209.06
2023-04-20T15:13:03.811Z,99207.81
2023-04-20T15:15:46.847Z,99204.44
2023-04-20T15:18:16.646Z,99210.31
2023-04-20T15:20:44.645Z,99218.59
2023-04-20T15:23:12.676Z,99218.38
2023-04-20T15:25:40.590Z,99228.16
2023-04-20T15:28:08.526Z,99229.06
2023-04-20T15:30:37.820Z,99227.75
2023-04-20T15:33:06.119Z,99226.41
2023-04-20T15:35:34.240Z,99234.25
2023-04-20T15:38:02.193Z,99233.59
2023-04-20T15:40:30.389Z,99234.63
2023-04-20T15:42:58.338Z,99251.94
2023-04-20T15:45:26.328Z,99255.88
2023-04-20T15:47:56.053Z,99259.72
2023-04-20T15:50:24.154Z,99287.88
2023-04-20T15:52:52.970Z,99320.22
2023-04-20T15:55:20.902Z,99327.91
2023-04-20T15:57:48.854Z,99338.03
2023-04-20T16:00:17.549Z,99353.47
2023-04-20T16:02:45.732Z,99363.63
2023-04-20T16:05:15.119Z,99359.97
2023-04-20T16:07:43.061Z,99384.69
2023-04-20T16:10:11.805Z,99394.06
2023-04-20T16:12:39.797Z,99403.19
2023-04-20T16:15:08.740Z,99414.38
2023-04-20T16:17:36.668Z,99430.19
2023-04-20T16:20:05.552Z,99429.97
2023-04-20T16:22:34.892Z,99437.25
2023-04-20T16:25:02.864Z,99450.94
2023-04-20T16:27:30.838Z,99441.75
2023-04-20T16:29:58.809Z,99442.56
2023-04-20T16:32:26.816Z,99444.03
2023-04-20T16:34:54.766Z,99451.50
2023-04-20T16:37:22.696Z,99449.41
2023-04-20T16:39:51.992Z,99448.38
2023-04-20T16:42:19.922Z,99446.06
2023-04-20T16:44:47.899Z,99442.97
2023-04-20T16:47:15.867Z,99452.53
2023-04-20T16:49:43.845Z,99449.19
2023-04-20T16:52:11.807Z,99447.53
2023-04-20T16:54:41.685Z,99445.47
2023-04-20T16:57:11.011Z,99451.69
2023-04-20T16:59:38.976Z,99440.91
2023-04-20T17:02:06.972Z,99432.56
2023-04-20T17:04:35.857Z,99428.00
2023-04-20T17:07:04.130Z,99435.47
2023-04-20T17:09:32.085Z,99430.84
2023-04-20T17:12:00.039Z,99430.44
2023-04-20T17:14:32.224Z,99414.19
2023-04-20T17:17:00.285Z,99402.56
2023-04-20T17:19:30.053Z,99403.19
2023-04-20T17:21:59.229Z,99397.53
2023-04-20T17:24:27.191Z,99413.63
2023-04-20T17:26:55.173Z,99408.28
2023-04-20T17:29:23.141Z,99419.91
2023-04-20T17:31:52.466Z,99419.91
2023-04-20T17:34:20.926Z,99420.50
2023-04-20T17:36:49.005Z,99420.50
2023-04-20T17:39:16.931Z,99423.00
2023-04-20T17:41:45.310Z,99428.19
2023-04-20T17:44:13.251Z,99431.09
2023-04-20T17:46:41.528Z,99429.91
2023-04-20T17:49:10.827Z,99427.81
2023-04-20T17:51:38.750Z,99424.47
2023-04-20T17:54:07.817Z,99430.72
2023-04-20T17:56:35.893Z,99439.19
2023-04-20T17:59:04.040Z,99432.31
2023-04-20T18:01:34.507Z,99426.94
2023-04-20T18:04:02.714Z,99427.81
2023-04-20T18:06:33.304Z,99439.22
2023-04-20T18:09:01.295Z,99438.81
2023-04-20T18:11:29.312Z,99445.66
2023-04-20T18:13:57.261Z,99446.03
2023-04-20T18:16:25.265Z,99439.38
2023-04-20T18:18:53.220Z,99434.44
2023-04-20T18:21:21.226Z,99411.97
2023-04-20T18:23:51.401Z,99433.00
2023-04-20T18:26:20.416Z,99437.16
2023-04-20T18:28:48.392Z,99431.53
2023-04-20T18:31:16.337Z,99443.53
2023-04-20T18:33:44.293Z,99432.91
2023-04-20T18:36:12.232Z,99435.34
2023-04-20T18:38:40.256Z,99431.19
2023-04-20T18:41:09.584Z,99438.00
2023-04-20T18:43:37.556Z,99434.66
2023-04-20T18:46:05.937Z,99430.63
2023-04-20T18:48:33.951Z,99429.63
2023-04-20T18:51:02.731Z,99424.22
2023-04-20T18:53:31.432Z,99437.50
2023-04-20T18:56:02.196Z,99447.38
2023-04-20T18:58:31.554Z,99439.28
2023-04-20T19:01:01.066Z,99450.31
2023-04-20T19:03:29.299Z,99448.28
2023-04-20T19:05:57.357Z,99452.56
2023-04-20T19:08:25.334Z,99449.03
2023-04-20T19:10:56.506Z,99447.00
2023-04-20T19:13:24.484Z,99445.97
2023-04-20T19:15:57.564Z,99448.28
2023-04-20T19:18:26.491Z,99453.25
2023-04-20T19:20:54.794Z,99444.56
2023-04-20T19:23:22.739Z,99447.88
2023-04-20T19:25:50.623Z,99457.22
2023-04-20T19:28:18.576Z,99448.16
2023-04-20T19:30:46.550Z,99447.56
2023-04-20T19:33:15.923Z,99441.34
2023-04-20T19:35:48.223Z,99437.63
2023-04-20T19:38:16.140Z,99439.72
2023-04-20T19:40:44.062Z,99439.06
2023-04-20T19:43:11.949Z,99447.81
2023-04-20T19:45:39.916Z,99452.16
2023-04-20T19:48:08.004Z,99457.56
2023-04-20T19:50:37.360Z,99450.75
2023-04-20T19:53:05.281Z,99449.63
2023-04-20T19:55:33.258Z,99447.97
2023-04-20T19:58:01.372Z,99441.72
2023-04-20T20:00:29.322Z,99445.00
2023-04-20T20:02:57.419Z,99437.81
2023-04-20T20:05:25.628Z,99445.94
2023-04-20T20:07:55.105Z,99440.91
2023-04-20T20:10:23.058Z,99446.28
2023-04-20T20:12:51.004Z,99439.25
2023-04-20T20:15:19.019Z,99445.91
2023-04-20T20:17:47.715Z,99439.72
2023-04-20T20:20:16.387Z,99445.50
2023-04-20T20:22:49.789Z,99448.81
2023-04-20T20:25:19.888Z,99451.94
2023-04-20T20:27:47.841Z,99450.41
2023-04-20T20:30:16.087Z,99454.75
2023-04-20T20:32:44.063Z,99450.00
2023-04-20T20:35:13.136Z,99454.16
2023-04-20T20:37:41.637Z,99452.06
2023-04-20T20:40:12.272Z,99455.59
2023-04-20T20:42:42.466Z,99455.84
2023-04-20T20:45:12.550Z,99455.25
2023-04-20T20:47:41.119Z,99451.31
2023-04-20T20:50:09.745Z,99445.00
2023-04-20T20:52:37.727Z,99442.97
2023-04-20T20:55:06.331Z,99447.16
2023-04-20T20:57:34.503Z,99448.66
2023-04-20T21:00:07.477Z,99441.00
2023-04-20T21:02:35.695Z,99444.31
2023-04-20T21:05:03.743Z,99444.31
2023-04-20T21:07:31.676Z,99441.47
2023-04-20T21:09:59.701Z,99435.25
2023-04-20T21:12:27.649Z,99434.47
2023-04-20T21:14:55.584Z,99433.22
2023-04-20T21:17:25.305Z,99429.31
2023-04-20T21:19:53.247Z,99426.81
2023-04-20T21:22:22.600Z,99426.88
2023-04-20T21:24:50.648Z,99412.94
2023-04-20T21:27:18.624Z,99412.09
2023-04-20T21:29:46.595Z,99410.53
2023-04-20T21:32:14.590Z,99413.59
2023-04-20T21:34:43.925Z,99416.56
2023-04-20T21:37:11.845Z,99407.03
2023-04-20T21:39:39.768Z,99410.16
2023-04-20T21:42:07.720Z,99416.63
2023-04-20T21:44:35.725Z,99412.50
2023-04-20T21:47:03.659Z,99414.09
2023-04-20T21:49:31.592Z,99414.50
2023-04-20T21:52:00.887Z,99410.38
2023-04-20T21:54:28.835Z,99408.31
2023-04-20T21:56:57.075Z,99406.25
2023-04-20T21:59:25.011Z,99404.59
2023-04-20T22:01:52.974Z,99405.25
2023-04-20T22:04:21.098Z,99399.59
2023-04-20T22:06:49.503Z,99404.59
2023-04-20T22:09:18.982Z,99407.84
2023-04-20T22:11:47.860Z,99405.16
2023-04-20T22:14:15.836Z,99406.38
2023-04-20T22:16:43.817Z,99411.56
2023-04-20T22:19:12.481Z,99411.75
2023-04-20T22:21:40.520Z,99409.06
2023-04-20T22:24:08.754Z,99409.41
2023-04-20T22:26:38.059Z,99409.75
2023-04-20T22:29:06.334Z,99406.44
2023-04-20T22:31:34.304Z,99416.81
2023-04-20T22:34:02.274Z,99411.03
2023-04-20T22:36:30.451Z,99415.78
2023-04-20T22:38:58.395Z,99413.47
2023-04-20T22:41:26.345Z,99413.25
2023-04-20T22:43:55.673Z,99401.44
2023-04-20T22:46:23.669Z,99408.06
2023-04-20T22:48:52.485Z,99396.06
2023-04-20T22:51:20.681Z,99401.91
2023-04-20T22:53:48.594Z,99401.13
2023-04-20T22:56:16.512Z,99400.47
2023-04-20T22:58:44.420Z,99405.00
2023-04-20T23:01:13.723Z,99400.25
2023-04-20T23:03:41.791Z,99403.56
2023-04-20T23:06:11.244Z,99391.13
2023-04-20T23:08:39.893Z,99391.94
2023-04-20T23:11:07.838Z,99385.69
2023-04-20T23:13:37.171Z,99384.47
2023-04-20T23:16:05.571Z,99381.09
2023-04-20T23:18:35.076Z,99385.00
2023-04-20T23:21:03.104Z,99383.50
2023-04-20T23:23:31.040Z,99370.09
2023-04-20T23:25:59.006Z,99366.19
2023-04-20T23:28:26.964Z,99367.84
2023-04-20T23:30:54.931Z,99372.84
2023-04-20T23:33:22.884Z,99368.72
2023-04-20T23:35:52.168Z,99376.16
2023-04-20T23:38:20.133Z,99370.38
2023-04-20T23:40:48.050Z,99379.47
2023-04-20T23:43:16.035Z,99371.22
2023-04-20T23:45:44.036Z,99371.28
2023-04-20T23:48:12.002Z,99365.00
2023-04-20T23:50:40.021Z,99357.91
2023-04-20T23:53:10.232Z,99359.97
2023-04-20T23:55:38.526Z,99362.06
2023-04-20T23:58:06.427Z,99350.84
